Time;durP1;ratioP1;P1;durP2;ratioP2;P2;SDS_P1;SDS_P2;PMS_P1;PMS_P2;Temp;Humidity;BMP_temperature;BMP_pressure;BME280_temperature;BME280_humidity;BME280_pressure;Samples;Min_cycle;Max_cycle;Signal;HPM_P1;HPM_P2
2023/12/21 00:01:36;;;;;;;19.47;7.80;;;;;;;;;;4995929;28;20193;-83
2023/12/21 00:04:06;;;;;;;15.83;7.83;;;;;;;;;;4994214;28;20229;-83
2023/12/21 00:06:36;;;;;;;16.43;7.37;;;;;;;;;;5000709;28;20283;-84
2023/12/21 00:09:06;;;;;;;14.13;8.27;;;;;;;;;;5014675;28;20284;-85
2023/12/21 00:11:38;;;;;;;20.67;8.43;;;;;;;;;;5013082;28;20200;-82
2023/12/21 00:14:10;;;;;;;10.03;6.50;;;;;;;;;;5012613;28;20208;-84
2023/12/21 00:16:39;;;;;;;8.23;5.03;;;;;;;;;;5012355;28;20232;-83
2023/12/21 00:19:10;;;;;;;5.80;4.27;;;;;;;;;;5012664;28;20201;-82
2023/12/21 00:21:38;;;;;;;4.67;3.67;;;;;;;;;;5012381;28;20204;-83
2023/12/21 00:24:08;;;;;;;9.87;3.90;;;;;;;;;;5012615;28;20291;-83
2023/12/21 00:26:37;;;;;;;8.33;5.17;;;;;;;;;;5025214;28;20209;-82
2023/12/21 00:29:07;;;;;;;5.53;3.70;;;;;;;;;;5024792;28;20201;-83
2023/12/21 00:31:37;;;;;;;11.37;4.83;;;;;;;;;;5012733;28;20201;-84
2023/12/21 00:34:06;;;;;;;8.47;4.87;;;;;;;;;;5012938;28;20243;-84
2023/12/21 00:36:34;;;;;;;6.07;3.90;;;;;;;;;;5013169;28;20294;-84
2023/12/21 00:39:02;;;;;;;5.93;3.17;;;;;;;;;;5012584;28;20228;-84
2023/12/21 00:41:31;;;;;;;5.63;4.33;;;;;;;;;;5012815;28;20204;-83
2023/12/21 00:44:01;;;;;;;9.00;5.27;;;;;;;;;;5010686;28;20275;-82
2023/12/21 00:46:31;;;;;;;10.00;4.90;;;;;;;;;;5012519;28;20193;-82
2023/12/21 00:49:02;;;;;;;13.40;5.33;;;;;;;;;;5013613;28;20303;-82
2023/12/21 00:51:31;;;;;;;11.10;6.17;;;;;;;;;;5012812;28;20488;-83
2023/12/21 00:53:59;;;;;;;14.80;6.60;;;;;;;;;;5012789;28;20200;-83
2023/12/21 00:56:28;;;;;;;16.13;8.80;;;;;;;;;;5013217;28;20291;-83
2023/12/21 00:58:59;;;;;;;15.23;7.47;;;;;;;;;;5013151;28;20233;-84
2023/12/21 01:01:31;;;;;;;14.67;7.13;;;;;;;;;;5013047;28;20201;-83
2023/12/21 01:04:00;;;;;;;17.33;8.30;;;;;;;;;;5022748;28;20205;-85
2023/12/21 01:06:37;;;;;;;19.03;8.47;;;;;;;;;;5032495;28;20267;-84
2023/12/21 01:09:11;;;;;;;16.83;8.67;;;;;;;;;;5032098;28;20309;-84
2023/12/21 01:11:44;;;;;;;12.07;7.93;;;;;;;;;;5033687;28;20238;-82
2023/12/21 01:14:16;;;;;;;20.27;5.83;;;;;;;;;;5033991;28;20252;-85
2023/12/21 01:16:45;;;;;;;12.53;6.97;;;;;;;;;;5030241;28;20225;-83
2023/12/21 01:19:20;;;;;;;14.70;6.83;;;;;;;;;;5020774;28;20211;-83
2023/12/21 01:21:52;;;;;;;10.30;5.80;;;;;;;;;;5010480;28;20208;-83
2023/12/21 01:24:24;;;;;;;14.10;6.50;;;;;;;;;;5005864;28;20215;-83
2023/12/21 01:26:53;;;;;;;7.40;4.47;;;;;;;;;;5019842;28;20313;-85
2023/12/21 01:29:22;;;;;;;12.47;4.70;;;;;;;;;;5014374;28;20255;-83
2023/12/21 01:31:52;;;;;;;4.33;3.93;;;;;;;;;;5014386;28;20220;-83
2023/12/21 01:34:25;;;;;;;3.40;3.13;;;;;;;;;;5016691;28;20204;-85
2023/12/21 01:36:54;;;;;;;8.87;4.03;;;;;;;;;;5015658;28;20298;-85
2023/12/21 01:39:23;;;;;;;7.80;4.57;;;;;;;;;;5016524;28;20196;-84
2023/12/21 01:42:11;;;;;;;12.20;4.77;;;;;;;;;;5025676;28;20200;-83
2023/12/21 01:44:38;;;;;;;5.40;4.07;;;;;;;;;;5029772;28;20236;-82
2023/12/21 01:47:08;;;;;;;10.10;4.43;;;;;;;;;;5016740;28;20211;-83
2023/12/21 01:49:39;;;;;;;3.57;3.23;;;;;;;;;;5014894;28;20208;-84
2023/12/21 01:52:09;;;;;;;4.80;4.23;;;;;;;;;;5015352;28;20208;-83
2023/12/21 01:54:39;;;;;;;8.07;3.00;;;;;;;;;;5012996;28;20231;-83
2023/12/21 01:57:08;;;;;;;4.97;3.40;;;;;;;;;;5012829;28;20295;-84
2023/12/21 01:59:38;;;;;;;9.83;4.03;;;;;;;;;;5012038;28;20200;-83
2023/12/21 02:02:08;;;;;;;4.37;3.30;;;;;;;;;;5011560;28;20216;-82
2023/12/21 02:04:41;;;;;;;4.27;3.43;;;;;;;;;;5011962;28;20652;-85
2023/12/21 02:07:10;;;;;;;3.83;3.50;;;;;;;;;;5011951;28;20199;-84
2023/12/21 02:09:40;;;;;;;7.70;3.43;;;;;;;;;;5011832;28;20296;-85
2023/12/21 02:12:11;;;;;;;6.30;3.80;;;;;;;;;;5011648;28;20204;-84
2023/12/21 02:14:41;;;;;;;4.43;3.47;;;;;;;;;;5012605;28;20224;-84
2023/12/21 02:17:11;;;;;;;5.30;3.70;;;;;;;;;;5012627;28;20400;-84
2023/12/21 02:19:42;;;;;;;5.47;3.73;;;;;;;;;;5011304;28;20205;-82
2023/12/21 02:22:12;;;;;;;7.97;4.17;;;;;;;;;;5010950;28;20666;-84
2023/12/21 02:24:41;;;;;;;9.63;4.73;;;;;;;;;;5011515;28;20687;-84
2023/12/21 02:27:10;;;;;;;6.43;5.20;;;;;;;;;;5010870;28;20272;-84
2023/12/21 02:29:39;;;;;;;12.57;6.63;;;;;;;;;;5010819;28;20224;-83
2023/12/21 02:32:11;;;;;;;9.37;7.07;;;;;;;;;;5012822;28;20216;-83
2023/12/21 02:34:38;;;;;;;18.27;9.10;;;;;;;;;;5011554;28;20197;-82
2023/12/21 02:37:07;;;;;;;21.97;8.13;;;;;;;;;;5011540;28;20587;-82
2023/12/21 02:39:39;;;;;;;16.97;9.40;;;;;;;;;;5015123;28;20741;-82
2023/12/21 02:42:10;;;;;;;18.13;9.17;;;;;;;;;;5014282;28;20745;-82
2023/12/21 02:44:38;;;;;;;27.10;9.17;;;;;;;;;;5014481;28;20303;-83
2023/12/21 02:47:08;;;;;;;24.67;8.97;;;;;;;;;;5014355;28;20209;-82
2023/12/21 02:49:40;;;;;;;10.40;6.87;;;;;;;;;;5013792;28;20271;-82
2023/12/21 02:52:08;;;;;;;11.63;7.07;;;;;;;;;;5013946;28;20634;-82
2023/12/21 02:54:39;;;;;;;9.23;6.03;;;;;;;;;;5013792;28;20267;-82
2023/12/21 02:57:08;;;;;;;10.30;6.50;;;;;;;;;;5014059;28;20208;-84
2023/12/21 02:59:37;;;;;;;11.83;5.37;;;;;;;;;;5013279;28;20201;-84
2023/12/21 03:02:07;;;;;;;9.90;5.83;;;;;;;;;;5013998;28;20205;-81
2023/12/21 03:04:40;;;;;;;8.20;6.20;;;;;;;;;;5014539;28;20327;-84
2023/12/21 03:07:09;;;;;;;9.13;5.90;;;;;;;;;;5015374;28;20221;-84
2023/12/21 03:09:38;;;;;;;13.67;6.53;;;;;;;;;;5027339;28;20708;-82
2023/12/21 03:12:08;;;;;;;9.07;6.50;;;;;;;;;;5031123;28;20193;-83
2023/12/21 03:14:38;;;;;;;9.10;5.73;;;;;;;;;;5034838;28;20198;-85
2023/12/21 03:17:07;;;;;;;14.60;6.93;;;;;;;;;;5031755;28;20197;-85
2023/12/21 03:19:37;;;;;;;10.37;6.77;;;;;;;;;;5014434;28;20196;-82
2023/12/21 03:22:07;;;;;;;7.13;5.93;;;;;;;;;;5013515;28;20333;-83
2023/12/21 03:24:35;;;;;;;9.10;5.80;;;;;;;;;;5013393;28;20729;-82
2023/12/21 03:27:09;;;;;;;9.30;5.00;;;;;;;;;;5013267;28;20197;-82
2023/12/21 03:29:41;;;;;;;11.47;6.07;;;;;;;;;;5012435;28;20589;-84
2023/12/21 03:32:10;;;;;;;4.37;3.63;;;;;;;;;;5012815;28;20732;-82
2023/12/21 03:34:40;;;;;;;7.87;5.43;;;;;;;;;;5012836;28;20271;-82
2023/12/21 03:37:10;;;;;;;9.77;5.17;;;;;;;;;;5012891;28;20666;-82
2023/12/21 03:39:38;;;;;;;7.43;5.60;;;;;;;;;;5013666;28;20204;-82
2023/12/21 03:42:07;;;;;;;9.27;4.63;;;;;;;;;;5019028;28;20204;-82
2023/12/21 03:44:35;;;;;;;7.23;4.17;;;;;;;;;;5015621;28;20197;-83
2023/12/21 03:47:05;;;;;;;5.37;3.20;;;;;;;;;;5013203;28;20223;-83
2023/12/21 03:49:33;;;;;;;6.97;4.43;;;;;;;;;;5013145;28;20283;-84
2023/12/21 03:52:03;;;;;;;8.27;4.93;;;;;;;;;;5012788;28;20205;-85
2023/12/21 03:54:32;;;;;;;8.37;5.50;;;;;;;;;;5012980;28;20207;-82
2023/12/21 03:57:02;;;;;;;10.80;5.33;;;;;;;;;;5013145;28;20215;-82
2023/12/21 03:59:34;;;;;;;8.33;5.60;;;;;;;;;;5012174;28;20236;-82
2023/12/21 04:02:05;;;;;;;5.60;4.73;;;;;;;;;;5012624;28;20284;-82
2023/12/21 04:04:37;;;;;;;4.03;3.27;;;;;;;;;;5012710;28;20733;-82
2023/12/21 04:07:06;;;;;;;5.73;4.17;;;;;;;;;;5012357;28;20192;-82
2023/12/21 04:09:34;;;;;;;4.27;3.87;;;;;;;;;;5013045;28;20307;-84
2023/12/21 04:14:48;;;;;;;6.33;4.37;;;;;;;;;;5013391;28;20282;-83
2023/12/21 04:17:16;;;;;;;10.20;4.37;;;;;;;;;;5013314;28;20197;-84
2023/12/21 04:19:47;;;;;;;6.20;3.80;;;;;;;;;;5012298;28;20243;-84
2023/12/21 04:22:16;;;;;;;7.93;4.67;;;;;;;;;;5013321;28;20390;-83
2023/12/21 04:24:45;;;;;;;6.27;4.63;;;;;;;;;;5013994;28;20694;-82
2023/12/21 04:27:14;;;;;;;6.10;4.10;;;;;;;;;;5014239;28;20278;-83
2023/12/21 04:29:42;;;;;;;3.80;3.27;;;;;;;;;;5012059;28;20263;-82
2023/12/21 04:32:11;;;;;;;4.03;3.63;;;;;;;;;;5013236;28;20603;-82
2023/12/21 04:34:40;;;;;;;6.37;3.83;;;;;;;;;;5012661;28;20204;-82
2023/12/21 04:37:10;;;;;;;4.10;3.67;;;;;;;;;;5011940;28;20200;-83
2023/12/21 04:39:39;;;;;;;7.30;4.83;;;;;;;;;;5012165;28;20237;-84
2023/12/21 04:42:07;;;;;;;6.17;4.67;;;;;;;;;;5012290;28;20247;-82
2023/12/21 04:44:34;;;;;;;7.70;4.30;;;;;;;;;;5011709;28;20287;-83
2023/12/21 04:47:08;;;;;;;6.67;4.17;;;;;;;;;;5012955;28;20197;-82
2023/12/21 04:49:39;;;;;;;9.30;5.13;;;;;;;;;;5012925;28;20594;-82
2023/12/21 04:52:09;;;;;;;7.80;4.60;;;;;;;;;;5012727;28;20204;-81
2023/12/21 04:54:40;;;;;;;5.57;4.10;;;;;;;;;;5013283;28;20192;-83
2023/12/21 04:57:10;;;;;;;8.57;3.63;;;;;;;;;;5014456;28;20224;-82
2023/12/21 04:59:41;;;;;;;8.77;3.67;;;;;;;;;;5015448;28;20328;-82
2023/12/21 05:02:11;;;;;;;4.70;3.93;;;;;;;;;;5015502;28;20192;-83
2023/12/21 05:04:41;;;;;;;5.83;3.37;;;;;;;;;;5015630;28;20236;-83
2023/12/21 05:07:10;;;;;;;6.83;4.93;;;;;;;;;;5015801;28;20492;-82
2023/12/21 05:09:42;;;;;;;5.27;4.50;;;;;;;;;;5012606;28;20213;-83
2023/12/21 05:12:10;;;;;;;4.33;4.00;;;;;;;;;;5014383;28;20643;-82
2023/12/21 05:14:38;;;;;;;6.20;4.50;;;;;;;;;;5012585;28;20206;-83
2023/12/21 05:17:05;;;;;;;4.60;4.00;;;;;;;;;;5012599;28;20204;-81
2023/12/21 05:19:37;;;;;;;5.87;3.93;;;;;;;;;;5011091;28;20212;-82
2023/12/21 05:22:04;;;;;;;9.40;4.67;;;;;;;;;;5012324;28;20204;-84
2023/12/21 05:24:33;;;;;;;5.00;3.57;;;;;;;;;;5011624;28;20611;-84
2023/12/21 05:27:15;;;;;;;5.70;3.93;;;;;;;;;;5011570;28;20197;-82
2023/12/21 05:29:44;;;;;;;6.17;3.90;;;;;;;;;;5011547;28;20197;-82
2023/12/21 05:32:18;;;;;;;6.03;3.57;;;;;;;;;;5011419;28;20220;-82
2023/12/21 05:34:50;;;;;;;7.07;5.00;;;;;;;;;;5011817;28;20193;-83
2023/12/21 05:37:24;;;;;;;9.13;4.10;;;;;;;;;;5012702;28;20598;-83
2023/12/21 05:39:53;;;;;;;3.97;3.67;;;;;;;;;;5015388;28;20780;-82
2023/12/21 05:42:23;;;;;;;5.73;3.97;;;;;;;;;;5017667;28;20213;-82
2023/12/21 05:44:52;;;;;;;8.07;4.60;;;;;;;;;;5013016;28;20259;-81
2023/12/21 05:47:24;;;;;;;7.63;4.33;;;;;;;;;;4998824;28;20295;-82
2023/12/21 05:49:54;;;;;;;3.37;3.07;;;;;;;;;;5010557;28;20279;-82
2023/12/21 05:52:25;;;;;;;5.33;4.07;;;;;;;;;;5005508;28;20208;-82
2023/12/21 05:54:55;;;;;;;5.13;3.57;;;;;;;;;;5004265;28;20197;-82
2023/12/21 05:57:27;;;;;;;7.37;4.27;;;;;;;;;;5012777;28;20238;-82
2023/12/21 05:59:56;;;;;;;6.03;3.97;;;;;;;;;;5011107;28;20240;-83
2023/12/21 06:02:27;;;;;;;7.60;4.97;;;;;;;;;;5008983;28;20591;-83
2023/12/21 06:04:55;;;;;;;5.37;4.03;;;;;;;;;;4992526;28;20774;-83
2023/12/21 06:07:24;;;;;;;6.40;3.90;;;;;;;;;;4991670;28;20617;-82
2023/12/21 06:09:55;;;;;;;6.83;4.03;;;;;;;;;;4992167;28;20208;-81
2023/12/21 06:12:24;;;;;;;3.90;3.43;;;;;;;;;;4993965;28;20201;-82
2023/12/21 06:14:54;;;;;;;3.10;2.80;;;;;;;;;;4992195;28;20637;-82
2023/12/21 06:17:24;;;;;;;9.50;4.20;;;;;;;;;;4993992;28;20199;-81
2023/12/21 06:19:54;;;;;;;7.50;3.77;;;;;;;;;;4992963;28;20757;-82
2023/12/21 06:22:22;;;;;;;10.10;4.90;;;;;;;;;;4993660;28;20217;-84
2023/12/21 06:24:51;;;;;;;6.30;4.60;;;;;;;;;;5000494;28;20209;-82
2023/12/21 06:27:21;;;;;;;6.17;4.20;;;;;;;;;;5015324;28;20231;-82
2023/12/21 06:29:49;;;;;;;4.90;4.13;;;;;;;;;;5023342;28;20208;-83
2023/12/21 06:32:19;;;;;;;7.77;3.83;;;;;;;;;;5022861;28;20280;-82
2023/12/21 06:34:49;;;;;;;12.00;5.17;;;;;;;;;;5023041;28;20232;-82
2023/12/21 06:37:18;;;;;;;6.83;4.60;;;;;;;;;;5026264;28;20280;-82
2023/12/21 06:39:49;;;;;;;6.90;4.47;;;;;;;;;;5029355;28;20246;-82
2023/12/21 06:42:17;;;;;;;8.07;5.30;;;;;;;;;;5034259;28;20196;-84
2023/12/21 06:44:47;;;;;;;9.60;5.00;;;;;;;;;;5035253;28;20188;-83
2023/12/21 06:47:21;;;;;;;8.73;4.83;;;;;;;;;;5035000;28;20203;-84
2023/12/21 06:49:50;;;;;;;7.87;5.20;;;;;;;;;;5032091;28;20269;-83
2023/12/21 06:52:21;;;;;;;7.83;4.53;;;;;;;;;;5022803;28;20655;-84
2023/12/21 06:54:54;;;;;;;9.77;5.57;;;;;;;;;;5008916;28;20204;-83
2023/12/21 06:57:23;;;;;;;5.37;4.77;;;;;;;;;;5014155;28;20231;-84
2023/12/21 06:59:53;;;;;;;6.40;5.27;;;;;;;;;;5013510;28;20745;-85
2023/12/21 07:02:22;;;;;;;8.70;5.43;;;;;;;;;;5005390;28;20244;-83
2023/12/21 07:04:52;;;;;;;10.47;6.37;;;;;;;;;;5005069;28;20276;-83
2023/12/21 07:07:20;;;;;;;9.17;5.47;;;;;;;;;;5006862;28;20278;-83
2023/12/21 07:09:52;;;;;;;8.10;5.87;;;;;;;;;;4993323;28;20205;-83
2023/12/21 07:12:27;;;;;;;8.47;6.07;;;;;;;;;;4995978;28;20623;-82
2023/12/21 07:14:59;;;;;;;8.27;5.37;;;;;;;;;;4997843;28;20220;-81
2023/12/21 07:17:28;;;;;;;7.97;5.10;;;;;;;;;;5005847;28;20569;-82
2023/12/21 07:19:59;;;;;;;6.67;4.73;;;;;;;;;;5002847;28;20227;-83
2023/12/21 07:22:30;;;;;;;4.97;4.27;;;;;;;;;;5006186;28;20561;-84
2023/12/21 07:25:00;;;;;;;10.10;4.90;;;;;;;;;;5014743;28;20216;-82
2023/12/21 07:27:30;;;;;;;5.00;4.50;;;;;;;;;;5012691;28;20256;-83
2023/12/21 07:30:01;;;;;;;4.73;3.83;;;;;;;;;;5024399;28;20205;-83
2023/12/21 07:32:30;;;;;;;4.80;4.23;;;;;;;;;;5002200;28;20241;-83
2023/12/21 07:35:02;;;;;;;5.50;4.97;;;;;;;;;;4998883;28;20230;-84
2023/12/21 07:37:31;;;;;;;4.77;3.93;;;;;;;;;;5000902;28;20205;-85
2023/12/21 07:40:00;;;;;;;7.67;4.63;;;;;;;;;;5002219;28;20245;-86
2023/12/21 07:42:29;;;;;;;5.23;4.20;;;;;;;;;;4999172;28;20334;-84
2023/12/21 07:45:03;;;;;;;6.40;4.23;;;;;;;;;;4999754;28;20201;-85
2023/12/21 07:47:32;;;;;;;6.67;4.50;;;;;;;;;;4999465;28;20208;-83
2023/12/21 07:50:03;;;;;;;4.97;4.40;;;;;;;;;;5000698;28;20198;-85
2023/12/21 07:52:35;;;;;;;3.77;3.33;;;;;;;;;;5000020;28;20228;-84
2023/12/21 07:55:04;;;;;;;3.97;3.57;;;;;;;;;;5003186;28;20207;-84
2023/12/21 07:57:43;;;;;;;4.47;3.63;;;;;;;;;;4999258;28;20207;-84
2023/12/21 08:00:14;;;;;;;6.47;4.10;;;;;;;;;;5002331;28;20230;-84
2023/12/21 08:02:45;;;;;;;5.50;4.07;;;;;;;;;;5018065;28;20658;-83
2023/12/21 08:05:16;;;;;;;3.63;3.33;;;;;;;;;;5017332;28;20489;-84
2023/12/21 08:07:44;;;;;;;3.60;3.07;;;;;;;;;;5000031;28;20267;-86
2023/12/21 08:10:18;;;;;;;5.10;3.83;;;;;;;;;;5003176;28;20197;-84
2023/12/21 08:12:50;;;;;;;4.70;3.67;;;;;;;;;;5005599;28;20698;-83
2023/12/21 08:15:32;;;;;;;4.27;3.70;;;;;;;;;;5006675;28;20203;-84
2023/12/21 08:18:16;;;;;;;6.60;3.73;;;;;;;;;;5000396;28;20219;-85
2023/12/21 08:20:59;;;;;;;4.40;3.90;;;;;;;;;;5003993;28;20223;-83
2023/12/21 08:23:29;;;;;;;3.20;3.00;;;;;;;;;;5017314;28;20212;-83
2023/12/21 08:25:58;;;;;;;6.17;4.10;;;;;;;;;;5008019;28;20220;-83
2023/12/21 08:28:30;;;;;;;6.93;4.67;;;;;;;;;;5020235;28;20238;-84
2023/12/21 08:31:23;;;;;;;4.17;3.80;;;;;;;;;;5023643;28;20258;-84
2023/12/21 08:33:57;;;;;;;7.40;4.50;;;;;;;;;;5027195;28;20229;-84
2023/12/21 08:42:36;;;;;;;5.43;4.03;;;;;;;;;;5024602;23;20239;-82
2023/12/21 08:45:14;;;;;;;4.50;3.83;;;;;;;;;;5021248;28;20233;-82
2023/12/21 08:47:52;;;;;;;4.07;3.67;;;;;;;;;;5009710;28;20318;-84
2023/12/21 08:50:21;;;;;;;3.53;3.27;;;;;;;;;;5017632;28;20610;-83
2023/12/21 08:52:51;;;;;;;3.60;3.30;;;;;;;;;;5014546;28;20227;-82
2023/12/21 08:55:20;;;;;;;5.60;4.30;;;;;;;;;;5014907;28;20666;-83
2023/12/21 08:57:49;;;;;;;4.30;3.90;;;;;;;;;;5027954;28;20194;-83
2023/12/21 09:00:22;;;;;;;4.37;3.30;;;;;;;;;;5031999;28;20213;-83
2023/12/21 09:02:51;;;;;;;5.13;3.37;;;;;;;;;;5018649;28;20200;-87
2023/12/21 09:05:19;;;;;;;4.47;3.60;;;;;;;;;;5020035;28;20663;-83
2023/12/21 09:07:49;;;;;;;6.13;4.10;;;;;;;;;;5020128;28;20189;-83
2023/12/21 09:10:17;;;;;;;5.90;3.80;;;;;;;;;;5019757;28;20205;-83
2023/12/21 09:12:47;;;;;;;5.87;3.93;;;;;;;;;;5016300;28;20197;-83
2023/12/21 09:15:15;;;;;;;6.43;5.03;;;;;;;;;;5016956;28;20206;-83
2023/12/21 09:17:46;;;;;;;5.30;4.33;;;;;;;;;;5019673;28;20183;-84
2023/12/21 09:20:32;;;;;;;5.53;4.03;;;;;;;;;;5020264;28;20235;-83
2023/12/21 09:23:01;;;;;;;6.27;3.50;;;;;;;;;;5019956;28;20203;-86
2023/12/21 09:25:31;;;;;;;3.50;3.20;;;;;;;;;;5016732;28;20304;-86
2023/12/21 09:28:06;;;;;;;3.00;2.87;;;;;;;;;;5004922;28;20287;-84
2023/12/21 09:30:41;;;;;;;6.00;3.53;;;;;;;;;;4993885;28;20262;-84
2023/12/21 09:33:12;;;;;;;4.27;3.00;;;;;;;;;;4991285;28;20628;-84
2023/12/21 09:35:43;;;;;;;5.37;3.67;;;;;;;;;;4991342;28;20234;-87
2023/12/21 09:38:11;;;;;;;3.50;3.20;;;;;;;;;;4990724;28;20301;-83
2023/12/21 09:40:41;;;;;;;6.27;3.50;;;;;;;;;;4990138;28;20318;-83
2023/12/21 09:43:13;;;;;;;5.47;2.70;;;;;;;;;;4995657;28;20249;-84
2023/12/21 09:45:45;;;;;;;3.30;3.00;;;;;;;;;;5012621;28;20236;-83
2023/12/21 09:48:17;;;;;;;2.90;2.70;;;;;;;;;;4986511;28;20294;-85
2023/12/21 09:50:50;;;;;;;4.93;3.07;;;;;;;;;;5000462;28;20230;-85
2023/12/21 09:53:22;;;;;;;3.80;3.47;;;;;;;;;;4992598;28;20336;-84
2023/12/21 09:55:52;;;;;;;4.67;3.73;;;;;;;;;;4989853;28;20232;-83
2023/12/21 09:58:21;;;;;;;3.97;2.83;;;;;;;;;;4976947;28;20254;-84
2023/12/21 10:00:52;;;;;;;3.93;3.57;;;;;;;;;;4991361;28;20268;-85
2023/12/21 10:03:22;;;;;;;4.20;3.27;;;;;;;;;;4988734;28;20700;-85
2023/12/21 10:05:51;;;;;;;3.87;3.30;;;;;;;;;;4992061;28;20207;-85
2023/12/21 10:08:22;;;;;;;5.80;3.50;;;;;;;;;;4992985;28;20284;-86
2023/12/21 10:10:54;;;;;;;3.97;3.60;;;;;;;;;;4998851;28;20199;-86
2023/12/21 10:13:26;;;;;;;6.37;4.03;;;;;;;;;;4991049;28;20732;-84
2023/12/21 10:16:00;;;;;;;4.43;3.87;;;;;;;;;;4993575;28;20272;-86
2023/12/21 10:18:29;;;;;;;4.93;4.27;;;;;;;;;;4990263;28;20325;-86
2023/12/21 10:21:01;;;;;;;8.80;4.37;;;;;;;;;;4989790;28;20237;-87
2023/12/21 10:23:32;;;;;;;5.50;4.70;;;;;;;;;;4989484;28;20607;-85
2023/12/21 10:26:02;;;;;;;7.47;4.23;;;;;;;;;;4989850;28;20199;-85
2023/12/21 10:28:36;;;;;;;7.70;4.20;;;;;;;;;;4989780;28;20753;-84
2023/12/21 10:31:08;;;;;;;5.00;3.63;;;;;;;;;;4990904;28;20217;-86
2023/12/21 10:33:39;;;;;;;3.67;3.37;;;;;;;;;;4992181;28;20355;-84
2023/12/21 10:36:14;;;;;;;3.80;3.50;;;;;;;;;;4994235;28;20206;-84
2023/12/21 10:38:45;;;;;;;5.43;3.57;;;;;;;;;;4994853;28;20224;-85
2023/12/21 10:41:15;;;;;;;4.40;3.60;;;;;;;;;;4996812;28;20240;-83
2023/12/21 10:43:47;;;;;;;3.13;2.83;;;;;;;;;;5013759;28;20186;-84
2023/12/21 10:46:18;;;;;;;2.40;2.30;;;;;;;;;;5010834;28;20205;-85
2023/12/21 10:48:47;;;;;;;2.77;2.43;;;;;;;;;;5011278;28;20225;-85
2023/12/21 10:51:20;;;;;;;3.10;2.80;;;;;;;;;;5010143;28;20638;-84
2023/12/21 10:53:51;;;;;;;3.10;2.80;;;;;;;;;;5009316;28;20614;-84
2023/12/21 10:56:25;;;;;;;5.93;2.77;;;;;;;;;;5009429;28;20234;-85
2023/12/21 10:59:13;;;;;;;2.40;2.20;;;;;;;;;;5014479;28;20456;-83
2023/12/21 11:01:44;;;;;;;2.27;1.97;;;;;;;;;;5013910;28;20407;-83
2023/12/21 11:04:17;;;;;;;2.37;2.17;;;;;;;;;;5016652;28;20211;-84
2023/12/21 11:06:49;;;;;;;2.80;2.33;;;;;;;;;;5015353;28;20200;-85
2023/12/21 11:09:21;;;;;;;2.13;1.83;;;;;;;;;;5014300;28;20298;-85
2023/12/21 11:11:57;;;;;;;2.23;2.13;;;;;;;;;;5013452;28;20189;-84
2023/12/21 11:14:35;;;;;;;2.23;2.13;;;;;;;;;;5013563;28;20203;-85
2023/12/21 11:17:10;;;;;;;12.27;2.80;;;;;;;;;;5013568;28;20694;-84
2023/12/21 11:19:41;;;;;;;2.33;2.20;;;;;;;;;;5014653;28;20233;-85
2023/12/21 11:22:21;;;;;;;2.93;2.60;;;;;;;;;;5013277;28;20277;-86
2023/12/21 11:25:11;;;;;;;2.07;1.97;;;;;;;;;;5013903;28;20202;-85
2023/12/21 11:28:08;;;;;;;2.90;2.50;;;;;;;;;;5014931;28;20323;-85
2023/12/21 11:30:39;;;;;;;2.53;2.30;;;;;;;;;;5017110;28;20208;-84
2023/12/21 11:33:38;;;;;;;5.60;2.97;;;;;;;;;;5018007;28;20229;-84
2023/12/21 11:39:19;;;;;;;3.10;2.53;;;;;;;;;;5012236;28;20203;-86
2023/12/21 11:41:52;;;;;;;2.37;2.13;;;;;;;;;;5009461;28;20244;-85
2023/12/21 11:44:53;;;;;;;1.73;1.63;;;;;;;;;;5010295;28;20202;-85
2023/12/21 11:47:33;;;;;;;2.20;2.10;;;;;;;;;;5008973;28;20212;-82
2023/12/21 11:50:08;;;;;;;1.90;1.80;;;;;;;;;;4993413;28;20313;-85
2023/12/21 11:52:57;;;;;;;1.83;1.70;;;;;;;;;;4999554;28;20683;-85
2023/12/21 11:55:51;;;;;;;;;;;;;;;;;;;;;
2023/12/21 11:58:26;;;;;;;6.70;2.17;;;;;;;;;;4992041;28;20554;-85
2023/12/21 12:00:55;;;;;;;3.43;1.87;;;;;;;;;;4999316;28;20227;-85
2023/12/21 12:03:28;;;;;;;1.90;1.80;;;;;;;;;;5002094;28;20225;-84
2023/12/21 12:06:06;;;;;;;2.93;2.33;;;;;;;;;;5016106;28;20231;-85
2023/12/21 12:08:46;;;;;;;1.63;1.60;;;;;;;;;;5011539;28;20294;-85
2023/12/21 12:11:37;;;;;;;1.47;1.47;;;;;;;;;;5011387;28;20232;-86
2023/12/21 12:14:15;;;;;;;3.00;2.00;;;;;;;;;;5012716;28;20235;-85
2023/12/21 12:16:52;;;;;;;1.80;1.70;;;;;;;;;;5012970;28;20245;-84
2023/12/21 12:22:18;;;;;;;2.60;2.07;;;;;;;;;;5008145;28;20314;-85
2023/12/21 12:24:53;;;;;;;1.80;1.70;;;;;;;;;;5009730;28;20315;-84
2023/12/21 12:27:26;;;;;;;9.67;2.47;;;;;;;;;;5014301;28;20334;-84
2023/12/21 12:30:20;;;;;;;2.30;2.10;;;;;;;;;;5013340;28;21085;-85
2023/12/21 12:33:07;;;;;;;2.33;2.13;;;;;;;;;;5017422;28;20235;-85
2023/12/21 12:35:44;;;;;;;2.83;2.10;;;;;;;;;;4970933;28;20636;-85
2023/12/21 12:38:19;;;;;;;1.90;1.80;;;;;;;;;;4986821;28;20298;-85
2023/12/21 12:40:55;;;;;;;3.17;2.20;;;;;;;;;;5020322;28;20250;-84
2023/12/21 12:43:30;;;;;;;8.00;1.80;;;;;;;;;;5033727;28;20203;-85
2023/12/21 12:46:08;;;;;;;2.33;2.07;;;;;;;;;;5033840;28;20242;-84
2023/12/21 12:48:50;;;;;;;1.83;1.40;;;;;;;;;;5033269;28;20199;-85
2023/12/21 12:51:22;;;;;;;2.57;1.37;;;;;;;;;;5032596;28;20210;-84
2023/12/21 12:53:53;;;;;;;1.70;1.60;;;;;;;;;;5031587;28;20241;-84
2023/12/21 12:56:26;;;;;;;1.17;1.17;;;;;;;;;;5031506;28;20192;-86
2023/12/21 12:59:13;;;;;;;1.83;1.70;;;;;;;;;;5032111;28;20287;-84
2023/12/21 13:04:50;;;;;;;5.27;2.70;;;;;;;;;;5026481;28;20282;-85
2023/12/21 13:07:26;;;;;;;2.23;1.90;;;;;;;;;;5034386;28;20288;-84
2023/12/21 13:09:57;;;;;;;2.70;2.40;;;;;;;;;;5034273;28;20195;-86
2023/12/21 13:12:36;;;;;;;3.20;1.63;;;;;;;;;;5034450;28;20200;-85
2023/12/21 13:15:09;;;;;;;2.67;1.83;;;;;;;;;;5032806;28;20230;-85
2023/12/21 13:17:38;;;;;;;1.80;1.70;;;;;;;;;;5033987;28;20211;-84
2023/12/21 13:20:09;;;;;;;1.70;1.60;;;;;;;;;;5033534;28;20215;-83
2023/12/21 13:22:49;;;;;;;;;;;;;;;;;;;;;
2023/12/21 13:25:27;;;;;;;2.20;2.10;;;;;;;;;;5032659;28;20208;-84
2023/12/21 13:28:18;;;;;;;2.10;2.00;;;;;;;;;;5037117;28;20204;-85
2023/12/21 13:36:47;;;;;;;2.33;2.13;;;;;;;;;;5014757;28;20199;-83
2023/12/21 13:39:20;;;;;;;2.80;2.57;;;;;;;;;;5020150;28;20290;-87
2023/12/21 13:41:52;;;;;;;4.33;2.97;;;;;;;;;;5014137;28;20232;-85
2023/12/21 13:44:21;;;;;;;7.17;3.73;;;;;;;;;;5014276;28;20232;-84
2023/12/21 13:46:56;;;;;;;9.00;3.80;;;;;;;;;;5015007;28;20260;-83
2023/12/21 13:49:37;;;;;;;5.43;4.23;;;;;;;;;;5015535;28;20200;-84
2023/12/21 13:52:08;;;;;;;2.63;2.50;;;;;;;;;;5015077;28;20196;-83
2023/12/21 13:54:40;;;;;;;1.67;1.53;;;;;;;;;;5012865;28;20756;-83
2023/12/21 13:57:16;;;;;;;3.53;2.70;;;;;;;;;;5014065;28;20193;-85
2023/12/21 14:00:01;;;;;;;;;;;;;;;;;;;;;
2023/12/21 14:02:33;;;;;;;3.20;2.93;;;;;;;;;;5013309;28;20547;-83
2023/12/21 14:05:12;;;;;;;4.13;3.57;;;;;;;;;;5017207;28;20592;-84
2023/12/21 14:07:42;;;;;;;9.50;3.77;;;;;;;;;;5020398;28;20199;-83
2023/12/21 14:10:21;;;;;;;3.23;2.40;;;;;;;;;;5016353;28;20287;-85
2023/12/21 14:12:51;;;;;;;3.07;2.53;;;;;;;;;;5015024;28;20200;-85
2023/12/21 14:15:35;;;;;;;6.30;3.07;;;;;;;;;;5014197;28;20200;-85
2023/12/21 14:18:04;;;;;;;3.47;2.37;;;;;;;;;;5017123;28;20196;-81
2023/12/21 14:23:21;;;;;;;3.60;2.70;;;;;;;;;;5013243;28;20208;-84
2023/12/21 14:25:51;;;;;;;4.83;3.33;;;;;;;;;;5013792;28;20188;-85
2023/12/21 14:28:26;;;;;;;3.47;3.00;;;;;;;;;;5014056;28;20413;-83
2023/12/21 14:30:56;;;;;;;6.50;2.63;;;;;;;;;;5014390;28;20189;-83
2023/12/21 14:33:24;;;;;;;3.90;2.73;;;;;;;;;;5021636;28;20223;-83
2023/12/21 14:35:56;;;;;;;2.67;2.47;;;;;;;;;;5023210;28;20192;-86
2023/12/21 14:38:26;;;;;;;4.77;3.43;;;;;;;;;;5022466;28;20662;-82
2023/12/21 14:40:55;;;;;;;3.27;2.90;;;;;;;;;;5020319;28;20783;-82
2023/12/21 14:43:25;;;;;;;5.20;2.77;;;;;;;;;;5027329;28;20204;-84
2023/12/21 14:45:54;;;;;;;4.27;2.90;;;;;;;;;;5038012;28;20191;-85
2023/12/21 14:48:23;;;;;;;4.23;2.37;;;;;;;;;;5020855;28;20499;-84
2023/12/21 14:50:53;;;;;;;7.47;2.77;;;;;;;;;;5034465;28;20209;-84
2023/12/21 14:53:24;;;;;;;4.37;3.03;;;;;;;;;;5037480;28;20185;-87
2023/12/21 14:55:53;;;;;;;3.20;2.80;;;;;;;;;;5038352;28;20211;-84
2023/12/21 14:58:24;;;;;;;5.30;3.20;;;;;;;;;;5037968;28;20191;-85
2023/12/21 15:00:56;;;;;;;6.03;3.37;;;;;;;;;;5038545;28;20290;-83
2023/12/21 15:03:26;;;;;;;14.10;4.30;;;;;;;;;;5037678;28;20264;-85
2023/12/21 15:05:55;;;;;;;5.80;4.23;;;;;;;;;;5035809;28;20235;-82
2023/12/21 15:08:27;;;;;;;7.47;4.27;;;;;;;;;;5034766;28;20212;-85
2023/12/21 15:10:57;;;;;;;4.23;2.97;;;;;;;;;;5019771;28;20349;-83
2023/12/21 15:13:26;;;;;;;3.43;3.13;;;;;;;;;;5018646;28;20196;-84
2023/12/21 15:15:55;;;;;;;5.17;3.17;;;;;;;;;;5016072;28;20196;-85
2023/12/21 15:18:22;;;;;;;4.63;4.20;;;;;;;;;;5017034;28;20197;-84
2023/12/21 15:20:52;;;;;;;6.87;4.40;;;;;;;;;;5014864;28;20204;-83
2023/12/21 15:23:22;;;;;;;4.93;3.90;;;;;;;;;;5014740;28;20264;-85
2023/12/21 15:25:53;;;;;;;6.57;4.40;;;;;;;;;;5015101;28;20685;-83
2023/12/21 15:28:23;;;;;;;5.07;3.50;;;;;;;;;;5014075;28;20193;-85
2023/12/21 15:30:52;;;;;;;9.30;5.03;;;;;;;;;;4996610;28;20234;-85
2023/12/21 15:33:20;;;;;;;10.27;5.20;;;;;;;;;;4993577;28;20613;-84
2023/12/21 15:35:49;;;;;;;9.00;5.40;;;;;;;;;;5001390;28;20300;-84
2023/12/21 15:38:17;;;;;;;10.17;6.53;;;;;;;;;;4994953;28;20275;-85